Forside
METAR-TAF:

METAR-TAF

Lufthavne :

Elkhart Municipal Airport

Elkhart, Indiana, USA

Breddekreds: 41-43N, længdekreds: 086-00W, højde: 237 m

Aktuelle vejr

Denne rapport blev lavet for 36 minutter siden, kl. 20:52 UTC
Vind 7 kt fra vest
Temperatur 0°C
Fugtighed 93%
Tryk 1012 hPa
Sigt: 8.0 km
Overskyet i en højde af 900 ft
let sne

METAR: KEKM 262052Z 26007KT 5SM -SN OVC009 00/M01 A2987 RMK AO2

Tid: 16:28 (21:28 UTC)


TAF: fraværende

Vejrobservationer og prognoser fra mere end 4000 lufthavne (METAR og TAF).

De gule og røde prikker repræsenterer de meteorologiske stationer.

Flyt musen over at se navnet på stationen.

Så klik over at se vejr observationer og prognoser.

At skifte det kort: Klik på de grønne knapper med et sort kors for at zoome ind; på den grønne knap med en bindestreg for at zoome ud; eller på de grønne pile for tilstødende kort.


METAR-TAF: